sensor_id;sensor_type;location;lat;lon;timestamp;temperature;humidity
65752;DHT22;52486;51.098;13.770;2022-07-29T00:00:28;25.40;39.20
65752;DHT22;52486;51.098;13.770;2022-07-29T00:02:54;25.40;39.20
65752;DHT22;52486;51.098;13.770;2022-07-29T00:05:19;25.40;39.20
65752;DHT22;52486;51.098;13.770;2022-07-29T00:07:45;25.40;39.20
65752;DHT22;52486;51.098;13.770;2022-07-29T00:10:10;25.40;39.20
65752;DHT22;52486;51.098;13.770;2022-07-29T00:12:36;25.40;39.20
65752;DHT22;52486;51.098;13.770;2022-07-29T00:15:02;25.40;39.10
65752;DHT22;52486;51.098;13.770;2022-07-29T00:17:28;25.40;39.10
65752;DHT22;52486;51.098;13.770;2022-07-29T00:19:53;25.40;39.20
65752;DHT22;52486;51.098;13.770;2022-07-29T00:22:19;25.40;39.20
65752;DHT22;52486;51.098;13.770;2022-07-29T00:24:46;25.40;39.20
65752;DHT22;52486;51.098;13.770;2022-07-29T00:27:12;25.40;39.20
65752;DHT22;52486;51.098;13.770;2022-07-29T00:29:38;25.40;39.20
65752;DHT22;52486;51.098;13.770;2022-07-29T00:32:03;25.40;39.20
65752;DHT22;52486;51.098;13.770;2022-07-29T00:34:29;25.40;39.20
65752;DHT22;52486;51.098;13.770;2022-07-29T00:37:13;25.40;39.20
65752;DHT22;52486;51.098;13.770;2022-07-29T00:39:39;25.40;39.20
65752;DHT22;52486;51.098;13.770;2022-07-29T00:42:04;25.40;39.20
65752;DHT22;52486;51.098;13.770;2022-07-29T00:44:30;25.40;39.20
65752;DHT22;52486;51.098;13.770;2022-07-29T00:46:55;25.40;39.20
65752;DHT22;52486;51.098;13.770;2022-07-29T00:49:21;25.40;39.20
65752;DHT22;52486;51.098;13.770;2022-07-29T00:51:46;25.40;39.20
65752;DHT22;52486;51.098;13.770;2022-07-29T00:54:13;25.40;39.20
65752;DHT22;52486;51.098;13.770;2022-07-29T00:56:39;25.40;39.20
65752;DHT22;52486;51.098;13.770;2022-07-29T00:59:04;25.40;39.20
65752;DHT22;52486;51.098;13.770;2022-07-29T01:01:30;25.40;39.20
65752;DHT22;52486;51.098;13.770;2022-07-29T01:03:55;25.40;39.20
65752;DHT22;52486;51.098;13.770;2022-07-29T01:06:21;25.40;39.20
65752;DHT22;52486;51.098;13.770;2022-07-29T01:08:47;25.40;39.20
65752;DHT22;52486;51.098;13.770;2022-07-29T01:11:12;25.30;39.10
65752;DHT22;52486;51.098;13.770;2022-07-29T01:13:38;25.40;39.20
65752;DHT22;52486;51.098;13.770;2022-07-29T01:16:23;25.30;39.20
65752;DHT22;52486;51.098;13.770;2022-07-29T01:18:50;25.40;39.20
65752;DHT22;52486;51.098;13.770;2022-07-29T01:23:59;25.40;39.20
65752;DHT22;52486;51.098;13.770;2022-07-29T01:26:35;25.40;39.20
65752;DHT22;52486;51.098;13.770;2022-07-29T01:31:58;25.40;39.20
65752;DHT22;52486;51.098;13.770;2022-07-29T01:34:21;25.30;39.20
65752;DHT22;52486;51.098;13.770;2022-07-29T01:36:51;25.40;39.20
65752;DHT22;52486;51.098;13.770;2022-07-29T01:39:23;25.40;39.20
65752;DHT22;52486;51.098;13.770;2022-07-29T01:44:37;25.30;39.20
65752;DHT22;52486;51.098;13.770;2022-07-29T01:47:07;25.30;39.20
65752;DHT22;52486;51.098;13.770;2022-07-29T01:49:36;25.30;39.20
65752;DHT22;52486;51.098;13.770;2022-07-29T01:52:05;25.30;39.20
65752;DHT22;52486;51.098;13.770;2022-07-29T01:54:40;25.40;39.30
65752;DHT22;52486;51.098;13.770;2022-07-29T01:57:14;25.30;39.20
65752;DHT22;52486;51.098;13.770;2022-07-29T01:59:42;25.40;39.30
65752;DHT22;52486;51.098;13.770;2022-07-29T02:02:10;25.40;39.30
65752;DHT22;52486;51.098;13.770;2022-07-29T02:04:36;25.30;39.20
65752;DHT22;52486;51.098;13.770;2022-07-29T02:07:06;25.30;39.20
65752;DHT22;52486;51.098;13.770;2022-07-29T02:09:33;25.40;39.30
65752;DHT22;52486;51.098;13.770;2022-07-29T02:12:00;25.40;39.20
65752;DHT22;52486;51.098;13.770;2022-07-29T02:14:28;25.40;39.30
65752;DHT22;52486;51.098;13.770;2022-07-29T02:16:55;25.30;39.20
65752;DHT22;52486;51.098;13.770;2022-07-29T02:19:21;25.40;39.20
65752;DHT22;52486;51.098;13.770;2022-07-29T02:21:48;25.40;39.30
65752;DHT22;52486;51.098;13.770;2022-07-29T02:24:14;25.30;39.20
65752;DHT22;52486;51.098;13.770;2022-07-29T02:26:41;25.30;39.20
65752;DHT22;52486;51.098;13.770;2022-07-29T02:29:08;25.30;39.20
65752;DHT22;52486;51.098;13.770;2022-07-29T02:31:35;25.40;39.20
65752;DHT22;52486;51.098;13.770;2022-07-29T02:34:05;25.30;39.20
65752;DHT22;52486;51.098;13.770;2022-07-29T02:36:31;25.40;39.30
65752;DHT22;52486;51.098;13.770;2022-07-29T02:38:58;25.30;39.20
65752;DHT22;52486;51.098;13.770;2022-07-29T02:41:27;25.30;39.20
65752;DHT22;52486;51.098;13.770;2022-07-29T02:43:54;25.30;39.20
65752;DHT22;52486;51.098;13.770;2022-07-29T02:46:23;25.30;39.20
65752;DHT22;52486;51.098;13.770;2022-07-29T02:48:54;25.30;39.20
65752;DHT22;52486;51.098;13.770;2022-07-29T02:54:06;25.30;39.20
65752;DHT22;52486;51.098;13.770;2022-07-29T02:56:32;25.30;39.20
65752;DHT22;52486;51.098;13.770;2022-07-29T02:59:01;25.30;39.20
65752;DHT22;52486;51.098;13.770;2022-07-29T03:01:30;25.30;39.20
65752;DHT22;52486;51.098;13.770;2022-07-29T03:03:56;25.30;39.20
65752;DHT22;52486;51.098;13.770;2022-07-29T03:06:26;25.30;39.20
65752;DHT22;52486;51.098;13.770;2022-07-29T03:08:52;25.40;39.30
65752;DHT22;52486;51.098;13.770;2022-07-29T03:11:19;25.40;39.30
65752;DHT22;52486;51.098;13.770;2022-07-29T03:13:45;25.40;39.30
65752;DHT22;52486;51.098;13.770;2022-07-29T03:16:11;25.30;39.20
65752;DHT22;52486;51.098;13.770;2022-07-29T03:18:38;25.40;39.30
65752;DHT22;52486;51.098;13.770;2022-07-29T03:21:04;25.30;39.20
65752;DHT22;52486;51.098;13.770;2022-07-29T03:23:29;25.40;39.30
65752;DHT22;52486;51.098;13.770;2022-07-29T03:25:55;25.40;39.30
65752;DHT22;52486;51.098;13.770;2022-07-29T03:28:21;25.30;39.20
65752;DHT22;52486;51.098;13.770;2022-07-29T03:30:47;25.30;39.20
65752;DHT22;52486;51.098;13.770;2022-07-29T03:33:12;25.30;39.20
65752;DHT22;52486;51.098;13.770;2022-07-29T03:35:38;25.30;39.20
65752;DHT22;52486;51.098;13.770;2022-07-29T03:38:04;25.30;39.20
65752;DHT22;52486;51.098;13.770;2022-07-29T03:40:40;25.30;39.30
65752;DHT22;52486;51.098;13.770;2022-07-29T03:43:08;25.30;39.30
65752;DHT22;52486;51.098;13.770;2022-07-29T03:45:35;25.30;39.30
65752;DHT22;52486;51.098;13.770;2022-07-29T03:48:01;25.30;39.20
65752;DHT22;52486;51.098;13.770;2022-07-29T03:50:28;25.30;39.20
65752;DHT22;52486;51.098;13.770;2022-07-29T03:52:55;25.30;39.20
65752;DHT22;52486;51.098;13.770;2022-07-29T03:55:20;25.30;39.20
65752;DHT22;52486;51.098;13.770;2022-07-29T03:57:46;25.30;39.20
65752;DHT22;52486;51.098;13.770;2022-07-29T04:00:13;25.30;39.20
65752;DHT22;52486;51.098;13.770;2022-07-29T04:02:40;25.30;39.20
65752;DHT22;52486;51.098;13.770;2022-07-29T04:05:14;25.30;39.20
65752;DHT22;52486;51.098;13.770;2022-07-29T04:07:43;25.30;39.20
65752;DHT22;52486;51.098;13.770;2022-07-29T04:10:09;25.30;39.20
65752;DHT22;52486;51.098;13.770;2022-07-29T04:12:34;25.30;39.20
65752;DHT22;52486;51.098;13.770;2022-07-29T04:15:01;25.40;39.30
65752;DHT22;52486;51.098;13.770;2022-07-29T04:17:26;25.40;39.30
65752;DHT22;52486;51.098;13.770;2022-07-29T04:19:52;25.30;39.20
65752;DHT22;52486;51.098;13.770;2022-07-29T04:22:17;25.30;39.20
65752;DHT22;52486;51.098;13.770;2022-07-29T04:24:43;25.30;39.20
65752;DHT22;52486;51.098;13.770;2022-07-29T04:27:08;25.30;39.20
65752;DHT22;52486;51.098;13.770;2022-07-29T04:29:34;25.30;39.20
65752;DHT22;52486;51.098;13.770;2022-07-29T04:32:00;25.40;39.30
65752;DHT22;52486;51.098;13.770;2022-07-29T04:34:25;25.30;39.20
65752;DHT22;52486;51.098;13.770;2022-07-29T04:36:51;25.30;39.20
65752;DHT22;52486;51.098;13.770;2022-07-29T04:39:16;25.30;39.20
65752;DHT22;52486;51.098;13.770;2022-07-29T04:41:43;25.30;39.20
65752;DHT22;52486;51.098;13.770;2022-07-29T04:44:08;25.30;39.20
65752;DHT22;52486;51.098;13.770;2022-07-29T04:46:34;25.30;39.20
65752;DHT22;52486;51.098;13.770;2022-07-29T04:49:00;25.30;39.20
65752;DHT22;52486;51.098;13.770;2022-07-29T04:51:25;25.30;39.20
65752;DHT22;52486;51.098;13.770;2022-07-29T04:53:51;25.30;39.20
65752;DHT22;52486;51.098;13.770;2022-07-29T04:56:17;25.30;39.20
65752;DHT22;52486;51.098;13.770;2022-07-29T04:58:42;25.30;39.20
65752;DHT22;52486;51.098;13.770;2022-07-29T05:01:08;25.30;39.20
65752;DHT22;52486;51.098;13.770;2022-07-29T05:03:36;25.30;39.20
65752;DHT22;52486;51.098;13.770;2022-07-29T05:06:01;25.30;39.20
65752;DHT22;52486;51.098;13.770;2022-07-29T05:08:27;25.30;39.30
65752;DHT22;52486;51.098;13.770;2022-07-29T05:10:53;25.30;39.20
65752;DHT22;52486;51.098;13.770;2022-07-29T05:13:18;25.30;39.20
65752;DHT22;52486;51.098;13.770;2022-07-29T05:15:44;25.30;39.20
65752;DHT22;52486;51.098;13.770;2022-07-29T05:18:21;25.30;39.20
65752;DHT22;52486;51.098;13.770;2022-07-29T05:20:47;25.40;39.30
65752;DHT22;52486;51.098;13.770;2022-07-29T05:23:12;25.40;39.30
65752;DHT22;52486;51.098;13.770;2022-07-29T05:25:38;25.30;39.20
65752;DHT22;52486;51.098;13.770;2022-07-29T05:28:04;25.30;39.20
65752;DHT22;52486;51.098;13.770;2022-07-29T05:30:29;25.30;39.30
65752;DHT22;52486;51.098;13.770;2022-07-29T05:32:55;25.30;39.20
65752;DHT22;52486;51.098;13.770;2022-07-29T05:35:20;25.30;39.20
65752;DHT22;52486;51.098;13.770;2022-07-29T05:37:46;25.30;39.20
65752;DHT22;52486;51.098;13.770;2022-07-29T05:40:11;25.30;39.20
65752;DHT22;52486;51.098;13.770;2022-07-29T05:42:37;25.30;39.20
65752;DHT22;52486;51.098;13.770;2022-07-29T05:45:03;25.30;39.20
65752;DHT22;52486;51.098;13.770;2022-07-29T05:47:28;25.30;39.20
65752;DHT22;52486;51.098;13.770;2022-07-29T05:49:54;25.40;39.30
65752;DHT22;52486;51.098;13.770;2022-07-29T05:52:20;25.30;39.20
65752;DHT22;52486;51.098;13.770;2022-07-29T05:54:45;25.30;39.20
65752;DHT22;52486;51.098;13.770;2022-07-29T05:57:15;25.30;39.20
65752;DHT22;52486;51.098;13.770;2022-07-29T05:59:40;25.30;39.20
65752;DHT22;52486;51.098;13.770;2022-07-29T06:02:06;25.30;39.20
65752;DHT22;52486;51.098;13.770;2022-07-29T06:04:32;25.30;39.20
65752;DHT22;52486;51.098;13.770;2022-07-29T06:06:58;25.40;39.20
65752;DHT22;52486;51.098;13.770;2022-07-29T06:09:23;25.40;39.30
65752;DHT22;52486;51.098;13.770;2022-07-29T06:11:49;25.40;39.20
65752;DHT22;52486;51.098;13.770;2022-07-29T06:14:14;25.30;39.20
65752;DHT22;52486;51.098;13.770;2022-07-29T06:16:40;25.40;39.20
65752;DHT22;52486;51.098;13.770;2022-07-29T06:19:05;25.40;39.30
65752;DHT22;52486;51.098;13.770;2022-07-29T06:21:31;25.30;39.20
65752;DHT22;52486;51.098;13.770;2022-07-29T06:23:56;25.40;39.20
65752;DHT22;52486;51.098;13.770;2022-07-29T06:26:22;25.30;39.20
65752;DHT22;52486;51.098;13.770;2022-07-29T06:28:48;25.40;39.20
65752;DHT22;52486;51.098;13.770;2022-07-29T06:31:13;25.40;39.20
65752;DHT22;52486;51.098;13.770;2022-07-29T06:33:39;25.40;39.20
65752;DHT22;52486;51.098;13.770;2022-07-29T06:36:05;25.40;39.20
65752;DHT22;52486;51.098;13.770;2022-07-29T06:38:31;25.40;39.20
65752;DHT22;52486;51.098;13.770;2022-07-29T06:40:56;25.40;39.20
65752;DHT22;52486;51.098;13.770;2022-07-29T06:46:01;25.40;39.20
65752;DHT22;52486;51.098;13.770;2022-07-29T06:48:27;25.40;39.10
65752;DHT22;52486;51.098;13.770;2022-07-29T06:50:53;25.40;39.20
65752;DHT22;52486;51.098;13.770;2022-07-29T06:53:19;25.40;39.10
65752;DHT22;52486;51.098;13.770;2022-07-29T06:55:44;25.40;39.10
65752;DHT22;52486;51.098;13.770;2022-07-29T06:58:10;25.50;39.20
65752;DHT22;52486;51.098;13.770;2022-07-29T07:00:36;25.50;39.20
65752;DHT22;52486;51.098;13.770;2022-07-29T07:03:02;25.40;39.10
65752;DHT22;52486;51.098;13.770;2022-07-29T07:05:27;25.50;39.10
65752;DHT22;52486;51.098;13.770;2022-07-29T07:07:53;25.40;39.00
65752;DHT22;52486;51.098;13.770;2022-07-29T07:10:19;25.50;39.10
65752;DHT22;52486;51.098;13.770;2022-07-29T07:12:44;25.50;39.10
65752;DHT22;52486;51.098;13.770;2022-07-29T07:15:10;25.50;39.10
65752;DHT22;52486;51.098;13.770;2022-07-29T07:17:35;25.50;39.10
65752;DHT22;52486;51.098;13.770;2022-07-29T07:20:01;25.50;39.00
65752;DHT22;52486;51.098;13.770;2022-07-29T07:22:26;25.50;39.10
65752;DHT22;52486;51.098;13.770;2022-07-29T07:24:52;25.50;39.00
65752;DHT22;52486;51.098;13.770;2022-07-29T07:27:17;25.50;39.00
65752;DHT22;52486;51.098;13.770;2022-07-29T07:29:43;25.50;39.00
65752;DHT22;52486;51.098;13.770;2022-07-29T07:32:08;25.50;39.00
65752;DHT22;52486;51.098;13.770;2022-07-29T07:34:34;25.50;39.00
65752;DHT22;52486;51.098;13.770;2022-07-29T07:36:59;25.50;39.00
65752;DHT22;52486;51.098;13.770;2022-07-29T07:39:25;25.50;39.00
65752;DHT22;52486;51.098;13.770;2022-07-29T07:41:51;25.50;39.00
65752;DHT22;52486;51.098;13.770;2022-07-29T07:44:17;25.50;39.00
65752;DHT22;52486;51.098;13.770;2022-07-29T07:46:42;25.50;39.00
65752;DHT22;52486;51.098;13.770;2022-07-29T07:49:10;25.50;39.00
65752;DHT22;52486;51.098;13.770;2022-07-29T07:51:35;25.50;39.00
65752;DHT22;52486;51.098;13.770;2022-07-29T07:54:01;25.60;39.10
65752;DHT22;52486;51.098;13.770;2022-07-29T07:56:27;25.60;39.10
65752;DHT22;52486;51.098;13.770;2022-07-29T07:58:52;25.60;39.10
65752;DHT22;52486;51.098;13.770;2022-07-29T08:01:18;25.60;39.10
65752;DHT22;52486;51.098;13.770;2022-07-29T08:03:46;25.60;39.10
65752;DHT22;52486;51.098;13.770;2022-07-29T08:06:11;25.60;39.10
65752;DHT22;52486;51.098;13.770;2022-07-29T08:08:37;25.60;39.10
65752;DHT22;52486;51.098;13.770;2022-07-29T08:11:03;25.60;39.10
65752;DHT22;52486;51.098;13.770;2022-07-29T08:13:28;25.60;39.10
65752;DHT22;52486;51.098;13.770;2022-07-29T08:15:55;25.60;39.10
65752;DHT22;52486;51.098;13.770;2022-07-29T08:18:26;25.70;39.10
65752;DHT22;52486;51.098;13.770;2022-07-29T08:20:52;25.70;39.10
65752;DHT22;52486;51.098;13.770;2022-07-29T08:23:17;25.70;39.10
65752;DHT22;52486;51.098;13.770;2022-07-29T08:25:44;25.70;39.10
65752;DHT22;52486;51.098;13.770;2022-07-29T08:28:10;25.70;39.10
65752;DHT22;52486;51.098;13.770;2022-07-29T08:30:35;25.70;39.10
65752;DHT22;52486;51.098;13.770;2022-07-29T08:33:01;25.70;39.10
65752;DHT22;52486;51.098;13.770;2022-07-29T08:35:26;25.70;39.00
65752;DHT22;52486;51.098;13.770;2022-07-29T08:37:52;25.70;39.10
65752;DHT22;52486;51.098;13.770;2022-07-29T08:40:18;25.80;39.00
65752;DHT22;52486;51.098;13.770;2022-07-29T08:42:44;25.80;39.10
65752;DHT22;52486;51.098;13.770;2022-07-29T08:45:09;25.80;39.00
65752;DHT22;52486;51.098;13.770;2022-07-29T08:47:35;25.80;39.00
65752;DHT22;52486;51.098;13.770;2022-07-29T08:50:05;25.80;39.00
65752;DHT22;52486;51.098;13.770;2022-07-29T08:52:31;25.80;39.00
65752;DHT22;52486;51.098;13.770;2022-07-29T08:54:59;25.80;39.00
65752;DHT22;52486;51.098;13.770;2022-07-29T08:57:24;25.80;38.90
65752;DHT22;52486;51.098;13.770;2022-07-29T08:59:50;25.80;39.60
65752;DHT22;52486;51.098;13.770;2022-07-29T09:02:20;25.80;38.90
65752;DHT22;52486;51.098;13.770;2022-07-29T09:04:47;25.80;38.90
65752;DHT22;52486;51.098;13.770;2022-07-29T09:07:14;25.80;38.90
65752;DHT22;52486;51.098;13.770;2022-07-29T09:09:40;25.90;39.00
65752;DHT22;52486;51.098;13.770;2022-07-29T09:12:06;25.90;38.90
65752;DHT22;52486;51.098;13.770;2022-07-29T09:14:33;25.90;38.90
65752;DHT22;52486;51.098;13.770;2022-07-29T09:16:59;25.90;38.90
65752;DHT22;52486;51.098;13.770;2022-07-29T09:19:26;25.90;38.90
65752;DHT22;52486;51.098;13.770;2022-07-29T09:21:52;25.90;38.90
65752;DHT22;52486;51.098;13.770;2022-07-29T09:26:59;26.00;38.90
65752;DHT22;52486;51.098;13.770;2022-07-29T09:29:25;26.00;38.90
65752;DHT22;52486;51.098;13.770;2022-07-29T09:31:51;26.00;39.00
65752;DHT22;52486;51.098;13.770;2022-07-29T09:34:21;26.00;38.90
65752;DHT22;52486;51.098;13.770;2022-07-29T09:36:53;26.00;38.90
65752;DHT22;52486;51.098;13.770;2022-07-29T09:39:29;26.00;38.90
65752;DHT22;52486;51.098;13.770;2022-07-29T09:41:56;26.00;38.90
65752;DHT22;52486;51.098;13.770;2022-07-29T09:44:22;26.10;39.00
65752;DHT22;52486;51.098;13.770;2022-07-29T09:46:54;26.10;39.00
65752;DHT22;52486;51.098;13.770;2022-07-29T09:49:20;26.10;38.90
65752;DHT22;52486;51.098;13.770;2022-07-29T09:51:46;26.10;39.00
65752;DHT22;52486;51.098;13.770;2022-07-29T09:54:21;26.10;38.90
65752;DHT22;52486;51.098;13.770;2022-07-29T09:56:47;26.10;38.90
65752;DHT22;52486;51.098;13.770;2022-07-29T09:59:13;26.20;39.00
65752;DHT22;52486;51.098;13.770;2022-07-29T10:01:39;26.20;39.00
65752;DHT22;52486;51.098;13.770;2022-07-29T10:04:05;26.20;39.00
65752;DHT22;52486;51.098;13.770;2022-07-29T10:06:30;26.20;39.00
65752;DHT22;52486;51.098;13.770;2022-07-29T10:09:06;26.20;39.00
65752;DHT22;52486;51.098;13.770;2022-07-29T10:11:32;26.20;39.00
65752;DHT22;52486;51.098;13.770;2022-07-29T10:13:57;26.20;38.90
65752;DHT22;52486;51.098;13.770;2022-07-29T10:16:23;26.20;38.90
65752;DHT22;52486;51.098;13.770;2022-07-29T10:18:50;26.30;39.00
65752;DHT22;52486;51.098;13.770;2022-07-29T10:21:16;26.30;38.90
65752;DHT22;52486;51.098;13.770;2022-07-29T10:23:42;26.30;39.00
65752;DHT22;52486;51.098;13.770;2022-07-29T10:26:07;26.30;39.00
65752;DHT22;52486;51.098;13.770;2022-07-29T10:28:34;26.30;38.90
65752;DHT22;52486;51.098;13.770;2022-07-29T10:31:01;26.30;38.90
65752;DHT22;52486;51.098;13.770;2022-07-29T10:38:54;26.40;39.00
65752;DHT22;52486;51.098;13.770;2022-07-29T10:43:59;26.40;39.00
65752;DHT22;52486;51.098;13.770;2022-07-29T10:46:26;26.40;38.90
65752;DHT22;52486;51.098;13.770;2022-07-29T10:49:07;26.40;38.90
65752;DHT22;52486;51.098;13.770;2022-07-29T10:54:18;26.50;39.00
65752;DHT22;52486;51.098;13.770;2022-07-29T10:56:43;26.50;39.00
65752;DHT22;52486;51.098;13.770;2022-07-29T11:01:47;26.50;38.90
65752;DHT22;52486;51.098;13.770;2022-07-29T11:04:13;26.50;39.00
65752;DHT22;52486;51.098;13.770;2022-07-29T11:09:23;26.60;39.00
65752;DHT22;52486;51.098;13.770;2022-07-29T11:11:49;26.60;39.00
65752;DHT22;52486;51.098;13.770;2022-07-29T11:14:15;26.60;38.90
65752;DHT22;52486;51.098;13.770;2022-07-29T11:16:59;26.60;38.90
65752;DHT22;52486;51.098;13.770;2022-07-29T11:19:25;26.60;39.00
65752;DHT22;52486;51.098;13.770;2022-07-29T11:21:51;26.60;38.90
65752;DHT22;52486;51.098;13.770;2022-07-29T11:26:43;26.70;39.00
65752;DHT22;52486;51.098;13.770;2022-07-29T11:29:21;26.70;39.00
65752;DHT22;52486;51.098;13.770;2022-07-29T11:31:50;26.70;39.20
65752;DHT22;52486;51.098;13.770;2022-07-29T11:34:26;26.70;38.90
65752;DHT22;52486;51.098;13.770;2022-07-29T11:39:37;26.70;39.00
65752;DHT22;52486;51.098;13.770;2022-07-29T11:47:19;26.80;39.00
65752;DHT22;52486;51.098;13.770;2022-07-29T11:49:45;26.80;38.90
65752;DHT22;52486;51.098;13.770;2022-07-29T11:52:11;26.80;39.00
65752;DHT22;52486;51.098;13.770;2022-07-29T11:54:36;26.80;38.90
65752;DHT22;52486;51.098;13.770;2022-07-29T11:57:06;26.80;38.90
65752;DHT22;52486;51.098;13.770;2022-07-29T11:59:31;26.90;39.00
65752;DHT22;52486;51.098;13.770;2022-07-29T12:02:03;26.90;39.00
65752;DHT22;52486;51.098;13.770;2022-07-29T12:04:29;26.90;39.00
65752;DHT22;52486;51.098;13.770;2022-07-29T12:06:55;26.90;39.00
65752;DHT22;52486;51.098;13.770;2022-07-29T12:09:21;26.90;39.00
65752;DHT22;52486;51.098;13.770;2022-07-29T12:11:48;27.00;39.00
65752;DHT22;52486;51.098;13.770;2022-07-29T12:14:30;27.00;39.00
65752;DHT22;52486;51.098;13.770;2022-07-29T12:16:56;27.00;39.10
65752;DHT22;52486;51.098;13.770;2022-07-29T12:19:22;27.00;39.00
65752;DHT22;52486;51.098;13.770;2022-07-29T12:21:48;27.00;39.00
65752;DHT22;52486;51.098;13.770;2022-07-29T12:24:14;27.00;39.00
65752;DHT22;52486;51.098;13.770;2022-07-29T12:26:58;27.10;39.10
65752;DHT22;52486;51.098;13.770;2022-07-29T12:29:24;27.10;39.60
65752;DHT22;52486;51.098;13.770;2022-07-29T12:31:52;27.10;40.00
65752;DHT22;52486;51.098;13.770;2022-07-29T12:34:20;27.00;39.80
65752;DHT22;52486;51.098;13.770;2022-07-29T12:36:45;26.80;39.90
65752;DHT22;52486;51.098;13.770;2022-07-29T12:39:11;26.70;40.60
65752;DHT22;52486;51.098;13.770;2022-07-29T12:41:37;26.60;41.00
65752;DHT22;52486;51.098;13.770;2022-07-29T12:44:04;26.50;41.20
65752;DHT22;52486;51.098;13.770;2022-07-29T12:46:29;26.40;41.60
65752;DHT22;52486;51.098;13.770;2022-07-29T12:48:55;26.30;41.20
65752;DHT22;52486;51.098;13.770;2022-07-29T12:54:06;26.10;41.30
65752;DHT22;52486;51.098;13.770;2022-07-29T12:56:33;26.00;40.90
65752;DHT22;52486;51.098;13.770;2022-07-29T12:58:59;25.90;40.40
65752;DHT22;52486;51.098;13.770;2022-07-29T13:01:24;25.80;40.40
65752;DHT22;52486;51.098;13.770;2022-07-29T13:03:56;25.80;41.80
65752;DHT22;52486;51.098;13.770;2022-07-29T13:06:32;25.70;41.60
65752;DHT22;52486;51.098;13.770;2022-07-29T13:09:06;25.60;41.70
65752;DHT22;52486;51.098;13.770;2022-07-29T13:11:33;25.50;41.90
65752;DHT22;52486;51.098;13.770;2022-07-29T13:13:59;25.50;41.70
65752;DHT22;52486;51.098;13.770;2022-07-29T13:16:25;25.40;42.40
65752;DHT22;52486;51.098;13.770;2022-07-29T13:19:03;25.40;42.50
65752;DHT22;52486;51.098;13.770;2022-07-29T13:21:28;25.30;42.40
65752;DHT22;52486;51.098;13.770;2022-07-29T13:23:54;25.20;42.50
65752;DHT22;52486;51.098;13.770;2022-07-29T13:26:19;25.20;42.70
65752;DHT22;52486;51.098;13.770;2022-07-29T13:28:45;25.20;43.00
65752;DHT22;52486;51.098;13.770;2022-07-29T13:31:10;25.20;43.20
65752;DHT22;52486;51.098;13.770;2022-07-29T13:33:36;25.10;43.00
65752;DHT22;52486;51.098;13.770;2022-07-29T13:36:01;25.10;43.00
65752;DHT22;52486;51.098;13.770;2022-07-29T13:38:27;25.10;43.10
65752;DHT22;52486;51.098;13.770;2022-07-29T13:40:52;25.00;43.10
65752;DHT22;52486;51.098;13.770;2022-07-29T13:43:18;25.00;43.20
65752;DHT22;52486;51.098;13.770;2022-07-29T13:45:43;24.90;43.10
65752;DHT22;52486;51.098;13.770;2022-07-29T13:48:09;24.90;43.30
65752;DHT22;52486;51.098;13.770;2022-07-29T13:50:35;24.90;43.10
65752;DHT22;52486;51.098;13.770;2022-07-29T13:53:00;24.80;43.80
65752;DHT22;52486;51.098;13.770;2022-07-29T13:55:26;24.80;43.80
65752;DHT22;52486;51.098;13.770;2022-07-29T13:57:51;24.80;44.00
65752;DHT22;52486;51.098;13.770;2022-07-29T14:00:17;24.80;43.90
65752;DHT22;52486;51.098;13.770;2022-07-29T14:02:44;24.80;43.90
65752;DHT22;52486;51.098;13.770;2022-07-29T14:05:09;24.70;43.70
65752;DHT22;52486;51.098;13.770;2022-07-29T14:07:35;24.70;43.70
65752;DHT22;52486;51.098;13.770;2022-07-29T14:10:01;24.70;43.70
65752;DHT22;52486;51.098;13.770;2022-07-29T14:12:27;24.60;43.80
65752;DHT22;52486;51.098;13.770;2022-07-29T14:14:52;24.60;44.60
65752;DHT22;52486;51.098;13.770;2022-07-29T14:17:18;24.60;44.20
65752;DHT22;52486;51.098;13.770;2022-07-29T14:19:43;24.60;44.20
65752;DHT22;52486;51.098;13.770;2022-07-29T14:22:09;24.50;43.90
65752;DHT22;52486;51.098;13.770;2022-07-29T14:24:35;24.50;43.60
65752;DHT22;52486;51.098;13.770;2022-07-29T14:27:01;24.50;43.50
65752;DHT22;52486;51.098;13.770;2022-07-29T14:29:26;24.50;43.60
65752;DHT22;52486;51.098;13.770;2022-07-29T14:31:52;24.40;43.60
65752;DHT22;52486;51.098;13.770;2022-07-29T14:34:18;24.40;43.60
65752;DHT22;52486;51.098;13.770;2022-07-29T14:36:43;24.40;43.70
65752;DHT22;52486;51.098;13.770;2022-07-29T14:39:10;24.30;43.60
65752;DHT22;52486;51.098;13.770;2022-07-29T14:41:35;24.30;43.80
65752;DHT22;52486;51.098;13.770;2022-07-29T14:44:01;24.40;43.80
65752;DHT22;52486;51.098;13.770;2022-07-29T14:46:26;24.30;43.70
65752;DHT22;52486;51.098;13.770;2022-07-29T14:48:52;24.40;44.00
65752;DHT22;52486;51.098;13.770;2022-07-29T14:51:17;24.40;44.20
65752;DHT22;52486;51.098;13.770;2022-07-29T14:53:43;24.40;44.40
65752;DHT22;52486;51.098;13.770;2022-07-29T14:56:09;24.40;44.50
65752;DHT22;52486;51.098;13.770;2022-07-29T14:58:34;24.40;44.60
65752;DHT22;52486;51.098;13.770;2022-07-29T15:01:00;24.40;44.50
65752;DHT22;52486;51.098;13.770;2022-07-29T15:03:26;24.40;44.50
65752;DHT22;52486;51.098;13.770;2022-07-29T15:05:53;24.30;44.20
65752;DHT22;52486;51.098;13.770;2022-07-29T15:08:18;24.30;44.10
65752;DHT22;52486;51.098;13.770;2022-07-29T15:10:44;24.30;44.40
65752;DHT22;52486;51.098;13.770;2022-07-29T15:13:10;24.30;44.30
65752;DHT22;52486;51.098;13.770;2022-07-29T15:15:35;24.30;44.30
65752;DHT22;52486;51.098;13.770;2022-07-29T15:18:01;24.20;44.10
65752;DHT22;52486;51.098;13.770;2022-07-29T15:20:26;24.20;44.40
65752;DHT22;52486;51.098;13.770;2022-07-29T15:22:52;24.30;44.30
65752;DHT22;52486;51.098;13.770;2022-07-29T15:25:18;24.30;44.20
65752;DHT22;52486;51.098;13.770;2022-07-29T15:27:44;24.40;44.20
65752;DHT22;52486;51.098;13.770;2022-07-29T15:30:10;24.50;44.00
65752;DHT22;52486;51.098;13.770;2022-07-29T15:32:36;24.50;44.00
65752;DHT22;52486;51.098;13.770;2022-07-29T15:35:01;24.60;43.90
65752;DHT22;52486;51.098;13.770;2022-07-29T15:37:28;24.70;43.80
65752;DHT22;52486;51.098;13.770;2022-07-29T15:39:53;24.70;43.80
65752;DHT22;52486;51.098;13.770;2022-07-29T15:42:19;24.80;43.70
65752;DHT22;52486;51.098;13.770;2022-07-29T15:44:44;24.80;43.70
65752;DHT22;52486;51.098;13.770;2022-07-29T15:47:10;24.90;43.60
65752;DHT22;52486;51.098;13.770;2022-07-29T15:49:37;24.90;43.60
65752;DHT22;52486;51.098;13.770;2022-07-29T15:52:04;25.00;43.70
65752;DHT22;52486;51.098;13.770;2022-07-29T15:54:31;25.00;43.50
65752;DHT22;52486;51.098;13.770;2022-07-29T15:56:57;25.00;43.40